createdAt,value
2019-03-02T00:02:24.139Z,12.85
2019-03-02T00:04:50.340Z,11.28
2019-03-02T00:07:16.817Z,12.40
2019-03-02T00:09:43.304Z,13.32
2019-03-02T00:12:09.985Z,14.40
2019-03-02T00:14:36.576Z,11.95
2019-03-02T00:17:03.150Z,12.47
2019-03-02T00:19:29.640Z,12.05
2019-03-02T00:21:56.372Z,14.70
2019-03-02T00:24:23.020Z,14.30
2019-03-02T00:26:49.617Z,12.78
2019-03-02T00:29:16.200Z,13.85
2019-03-02T00:31:42.952Z,13.32
2019-03-02T00:34:09.499Z,16.32
2019-03-02T00:36:36.091Z,14.40
2019-03-02T00:39:04.636Z,14.00
2019-03-02T00:41:31.504Z,15.20
2019-03-02T00:43:59.828Z,14.25
2019-03-02T00:46:26.169Z,15.55
2019-03-02T00:48:52.841Z,13.83
2019-03-02T00:51:19.633Z,12.80
2019-03-02T00:53:46.192Z,14.50
2019-03-02T00:56:12.684Z,16.50
2019-03-02T00:58:39.141Z,15.32
2019-03-02T01:01:05.730Z,16.17
2019-03-02T01:03:32.405Z,16.23
2019-03-02T01:05:59.005Z,14.70
2019-03-02T01:08:25.579Z,16.55
2019-03-02T01:10:54.777Z,17.77
2019-03-02T01:13:22.950Z,17.05
2019-03-02T01:15:49.028Z,15.58
2019-03-02T01:18:15.616Z,15.95
2019-03-02T01:20:42.590Z,15.90
2019-03-02T01:23:09.276Z,17.50
2019-03-02T01:25:35.751Z,16.45
2019-03-02T01:28:02.435Z,18.80
2019-03-02T01:30:30.012Z,19.48
2019-03-02T01:32:57.301Z,18.45
2019-03-02T01:35:24.133Z,17.55
2019-03-02T01:37:50.739Z,18.00
2019-03-02T01:40:17.403Z,18.48
2019-03-02T01:42:43.896Z,21.20
2019-03-02T01:45:12.765Z,20.88
2019-03-02T01:47:39.238Z,16.87
2019-03-02T01:50:08.634Z,17.80
2019-03-02T01:52:36.767Z,19.35
2019-03-02T01:55:05.661Z,20.85
2019-03-02T01:57:32.115Z,19.70
2019-03-02T01:59:58.706Z,19.75
2019-03-02T02:02:25.367Z,19.90
2019-03-02T02:04:54.535Z,21.05
2019-03-02T02:07:20.134Z,18.98
2019-03-02T02:09:46.722Z,20.80
2019-03-02T02:12:13.786Z,19.45
2019-03-02T02:14:40.268Z,20.48
2019-03-02T02:17:06.940Z,18.90
2019-03-02T02:19:34.796Z,22.22
2019-03-02T02:22:21.557Z,19.70
2019-03-02T02:24:48.158Z,19.55
2019-03-02T02:27:14.712Z,19.57
2019-03-02T02:29:43.509Z,19.92
2019-03-02T02:32:09.573Z,19.67
2019-03-02T02:34:36.167Z,18.30
2019-03-02T02:37:02.829Z,20.12
2019-03-02T02:39:33.633Z,18.37
2019-03-02T02:41:59.940Z,19.17
2019-03-02T02:44:26.462Z,20.65
2019-03-02T02:46:53.022Z,20.15
2019-03-02T02:49:19.616Z,21.20
2019-03-02T02:51:49.462Z,20.17
2019-03-02T02:54:14.339Z,22.25
2019-03-02T02:56:40.912Z,17.15
2019-03-02T02:59:07.474Z,19.92
2019-03-02T03:01:35.014Z,19.65
2019-03-02T03:04:01.944Z,18.80
2019-03-02T03:06:32.540Z,18.75
2019-03-02T03:08:56.987Z,19.52
2019-03-02T03:11:23.605Z,19.12
2019-03-02T03:13:50.053Z,17.25
2019-03-02T03:16:17.915Z,18.98
2019-03-02T03:18:47.030Z,18.77
2019-03-02T03:21:12.897Z,20.57
2019-03-02T03:23:39.461Z,19.60
2019-03-02T03:26:06.319Z,19.50
2019-03-02T03:28:33.162Z,19.30
2019-03-02T03:30:59.841Z,20.00
2019-03-02T03:33:26.403Z,18.10
2019-03-02T03:35:56.132Z,20.37
2019-03-02T03:38:24.973Z,17.32
2019-03-02T03:40:49.974Z,18.50
2019-03-02T03:43:16.547Z,20.02
2019-03-02T03:45:45.049Z,20.60
2019-03-02T03:48:12.983Z,19.55
2019-03-02T03:50:39.989Z,18.02
2019-03-02T03:53:06.552Z,20.08
2019-03-02T03:55:33.154Z,19.85
2019-03-02T03:58:00.357Z,19.65
2019-03-02T04:00:28.160Z,18.45
2019-03-02T04:02:54.751Z,19.32
2019-03-02T04:05:21.196Z,20.05
2019-03-02T04:07:49.671Z,22.13
2019-03-02T04:10:24.531Z,21.62
2019-03-02T04:12:44.716Z,21.82
2019-03-02T04:15:11.477Z,22.05
2019-03-02T04:17:39.047Z,21.85
2019-03-02T04:20:13.724Z,22.20
2019-03-02T04:22:44.595Z,21.97
2019-03-02T04:25:12.962Z,22.00
2019-03-02T04:27:37.600Z,22.00
2019-03-02T04:30:07.124Z,20.80
2019-03-02T04:32:33.609Z,20.95
2019-03-02T04:35:00.338Z,21.05
2019-03-02T04:37:26.865Z,20.52
2019-03-02T04:39:53.526Z,19.75
2019-03-02T04:42:20.125Z,18.95
2019-03-02T04:44:46.696Z,21.15
2019-03-02T04:47:13.622Z,19.12
2019-03-02T04:49:40.072Z,22.20
2019-03-02T04:52:06.793Z,22.20
2019-03-02T04:54:37.445Z,23.65
2019-03-02T04:57:01.634Z,22.95
2019-03-02T04:59:28.092Z,19.23
2019-03-02T05:01:54.602Z,20.57
2019-03-02T05:04:21.061Z,21.45
2019-03-02T05:06:50.660Z,19.90
2019-03-02T05:09:17.114Z,19.35
2019-03-02T05:11:44.405Z,21.17
2019-03-02T05:14:10.994Z,17.75
2019-03-02T05:16:37.543Z,22.17
2019-03-02T05:19:04.034Z,20.43
2019-03-02T05:21:30.483Z,19.35
2019-03-02T05:23:56.868Z,20.35
2019-03-02T05:26:23.616Z,17.40
2019-03-02T05:28:50.273Z,17.85
2019-03-02T05:31:17.117Z,18.82
2019-03-02T05:33:43.650Z,19.07
2019-03-02T05:36:10.160Z,17.45
2019-03-02T05:38:36.662Z,16.30
2019-03-02T05:41:03.982Z,17.40
2019-03-02T05:43:30.913Z,19.12
2019-03-02T05:45:57.756Z,18.40
2019-03-02T05:48:24.335Z,17.92
2019-03-02T05:50:50.891Z,18.45
2019-03-02T05:53:17.368Z,17.65
2019-03-02T05:55:44.205Z,18.15
2019-03-02T05:58:12.610Z,17.90
2019-03-02T06:00:39.161Z,17.23
2019-03-02T06:03:05.622Z,17.35
2019-03-02T06:05:32.397Z,20.12
2019-03-02T06:08:00.522Z,17.10
2019-03-02T06:10:27.146Z,17.67
2019-03-02T06:12:53.608Z,17.27
2019-03-02T06:15:20.098Z,18.27
2019-03-02T06:17:46.947Z,17.50
2019-03-02T06:20:13.541Z,16.30
2019-03-02T06:22:40.297Z,18.75
2019-03-02T06:25:19.391Z,18.65
2019-03-02T06:27:43.208Z,18.57
2019-03-02T06:30:16.510Z,18.90
2019-03-02T06:32:43.074Z,17.17
2019-03-02T06:35:09.644Z,18.52
2019-03-02T06:37:36.416Z,20.05
2019-03-02T06:40:05.714Z,19.92
2019-03-02T06:42:32.652Z,19.42
2019-03-02T06:44:59.152Z,18.15
2019-03-02T06:47:25.711Z,20.10
2019-03-02T06:49:53.176Z,17.20
2019-03-02T06:52:25.167Z,19.35
2019-03-02T06:54:49.208Z,19.40
2019-03-02T06:57:15.969Z,19.87
2019-03-02T06:59:42.332Z,20.30
2019-03-02T07:02:08.808Z,18.35
2019-03-02T07:04:35.272Z,20.82
2019-03-02T07:07:01.850Z,21.27
2019-03-02T07:09:28.300Z,20.32
2019-03-02T07:11:54.889Z,20.80
2019-03-02T07:14:21.353Z,18.75
2019-03-02T07:16:47.927Z,19.65
2019-03-02T07:19:33.081Z,20.85
2019-03-02T07:21:59.671Z,17.12
2019-03-02T07:24:29.443Z,17.60
2019-03-02T07:26:55.484Z,20.17
2019-03-02T07:29:22.048Z,19.62
2019-03-02T07:31:48.533Z,19.50
2019-03-02T07:34:14.996Z,20.77
2019-03-02T07:36:41.440Z,20.37
2019-03-02T07:39:08.125Z,17.50
2019-03-02T07:41:34.684Z,18.98
2019-03-02T07:44:01.361Z,21.93
2019-03-02T07:46:27.721Z,18.37
2019-03-02T07:48:54.216Z,20.05
2019-03-02T07:51:20.690Z,19.40
2019-03-02T07:53:47.173Z,18.90
2019-03-02T07:56:13.619Z,20.75
2019-03-02T07:58:40.199Z,19.00
2019-03-02T08:01:06.755Z,18.42
2019-03-02T08:03:33.241Z,17.07
2019-03-02T08:06:01.291Z,17.00
2019-03-02T08:08:27.898Z,20.02
2019-03-02T08:10:54.456Z,21.52
2019-03-02T08:13:20.944Z,20.90
2019-03-02T08:15:47.516Z,18.90
2019-03-02T08:18:14.012Z,21.02
2019-03-02T08:20:40.560Z,19.60
2019-03-02T08:23:07.025Z,19.60
2019-03-02T08:25:33.524Z,22.87
2019-03-02T08:27:59.996Z,17.30
2019-03-02T08:30:29.881Z,20.15
2019-03-02T08:32:57.730Z,19.30
2019-03-02T08:35:23.464Z,18.05
2019-03-02T08:37:50.363Z,19.30
2019-03-02T08:40:19.432Z,19.75
2019-03-02T08:42:45.734Z,18.60
2019-03-02T08:45:16.184Z,18.70
2019-03-02T08:47:42.864Z,20.12
2019-03-02T08:50:17.442Z,18.95
2019-03-02T08:52:42.449Z,19.73
2019-03-02T08:55:20.080Z,18.73
2019-03-02T08:57:46.753Z,19.73
2019-03-02T09:00:18.477Z,23.73
2019-03-02T09:02:44.968Z,19.20
2019-03-02T09:05:11.549Z,20.75
2019-03-02T09:07:38.157Z,20.15
2019-03-02T09:10:13.707Z,19.73
2019-03-02T09:12:41.169Z,20.37
2019-03-02T09:15:22.246Z,22.73
2019-03-02T09:17:50.171Z,20.72
2019-03-02T09:20:16.701Z,21.12
2019-03-02T09:22:43.294Z,18.70
2019-03-02T09:25:16.573Z,18.02
2019-03-02T09:27:43.430Z,25.32
2019-03-02T09:30:15.300Z,18.10
2019-03-02T09:32:42.114Z,22.77
2019-03-02T09:35:12.960Z,18.50
2019-03-02T09:37:40.843Z,16.32
2019-03-02T09:40:13.358Z,18.65
2019-03-02T09:42:41.202Z,22.50
2019-03-02T09:45:13.181Z,19.40
2019-03-02T09:47:40.244Z,18.77
2019-03-02T09:50:10.000Z,20.02
2019-03-02T09:52:38.308Z,20.82
2019-03-02T09:55:07.377Z,19.60
2019-03-02T09:57:34.264Z,19.60
2019-03-02T10:00:00.641Z,19.92
2019-03-02T10:02:27.149Z,19.60
2019-03-02T10:04:53.829Z,20.00
2019-03-02T10:07:20.407Z,19.35
2019-03-02T10:09:46.892Z,20.40
2019-03-02T10:12:13.754Z,20.50
2019-03-02T10:14:41.561Z,18.70
2019-03-02T10:17:08.052Z,18.65
2019-03-02T10:19:34.616Z,18.05
2019-03-02T10:22:01.010Z,19.40
2019-03-02T10:24:27.577Z,22.10
2019-03-02T10:26:54.456Z,21.68
2019-03-02T10:29:21.019Z,23.85
2019-03-02T10:31:47.708Z,22.32
2019-03-02T10:34:14.324Z,21.30
2019-03-02T10:36:41.004Z,18.40
2019-03-02T10:39:07.596Z,18.25
2019-03-02T10:41:34.263Z,22.27
2019-03-02T10:44:00.848Z,34.73
2019-03-02T10:46:27.464Z,19.00
2019-03-02T10:48:54.346Z,19.70
2019-03-02T10:51:20.811Z,20.05
2019-03-02T10:53:47.296Z,19.73
2019-03-02T10:56:13.756Z,19.98
2019-03-02T10:58:40.270Z,20.27
2019-03-02T11:01:07.330Z,18.35
2019-03-02T11:03:35.232Z,21.85
2019-03-02T11:06:07.258Z,21.82
2019-03-02T11:08:35.825Z,26.42
2019-03-02T11:11:12.960Z,18.70
2019-03-02T11:13:57.933Z,19.57
2019-03-02T11:16:29.455Z,20.05
2019-03-02T11:18:57.974Z,18.77
2019-03-02T11:21:43.522Z,21.77
2019-03-02T11:24:30.530Z,26.07
2019-03-02T11:27:01.385Z,22.03
2019-03-02T11:29:36.070Z,26.17
2019-03-02T11:32:04.569Z,17.90
2019-03-02T11:34:45.020Z,19.00
2019-03-02T11:37:30.542Z,20.93
2019-03-02T11:40:01.884Z,22.77
2019-03-02T11:42:42.779Z,20.47
2019-03-02T11:45:11.471Z,18.67
2019-03-02T11:47:56.612Z,20.10
2019-03-02T11:50:34.465Z,15.10
2019-03-02T11:53:05.926Z,15.10
2019-03-02T11:55:34.872Z,14.70
2019-03-02T11:58:03.481Z,14.10
2019-03-02T12:00:37.741Z,13.63
2019-03-02T12:03:03.881Z,15.73
2019-03-02T12:05:32.444Z,15.90
2019-03-02T12:08:12.766Z,14.67
2019-03-02T12:10:56.217Z,15.15
2019-03-02T12:13:31.160Z,16.23
2019-03-02T12:16:01.674Z,17.30
2019-03-02T12:18:36.396Z,14.67
2019-03-02T12:21:05.004Z,15.07
2019-03-02T12:23:39.362Z,15.47
2019-03-02T12:26:20.105Z,15.75
2019-03-02T12:28:51.689Z,11.70
2019-03-02T12:31:28.095Z,11.80
2019-03-02T12:34:04.905Z,13.07
2019-03-02T12:36:49.100Z,14.30
2019-03-02T12:39:20.067Z,16.80
2019-03-02T12:41:52.520Z,13.13
2019-03-02T12:44:21.341Z,12.23
2019-03-02T12:46:58.971Z,13.80
2019-03-02T12:49:25.609Z,9.90
2019-03-02T12:52:00.284Z,10.53
2019-03-02T12:54:28.685Z,9.50
2019-03-02T12:56:57.143Z,9.50
2019-03-02T12:59:39.581Z,9.47
2019-03-02T13:02:14.126Z,10.63
2019-03-02T13:04:57.599Z,10.80
2019-03-02T13:07:25.984Z,11.77
2019-03-02T13:09:57.109Z,10.93
2019-03-02T13:12:25.769Z,10.70
2019-03-02T13:15:11.082Z,9.97
2019-03-02T13:17:39.566Z,10.60
2019-03-02T13:20:15.218Z,9.63
2019-03-02T13:23:03.080Z,10.37
2019-03-02T13:25:49.730Z,9.07
2019-03-02T13:28:18.363Z,10.53
2019-03-02T13:31:07.647Z,8.53
2019-03-02T13:33:36.973Z,8.73
2019-03-02T13:36:19.046Z,8.10
2019-03-02T13:38:59.769Z,7.90
2019-03-02T13:41:37.187Z,8.20
2019-03-02T13:44:11.488Z,7.97
2019-03-02T13:46:46.767Z,7.17
2019-03-02T13:49:15.412Z,8.10
2019-03-02T13:51:59.083Z,7.85
2019-03-02T13:54:30.108Z,8.33
2019-03-02T13:57:04.773Z,6.72
2019-03-02T13:59:43.794Z,7.70
2019-03-02T14:02:18.195Z,7.53
2019-03-02T14:04:49.392Z,8.30
2019-03-02T14:07:27.197Z,7.50
2019-03-02T14:10:11.357Z,7.53
2019-03-02T14:12:46.059Z,6.67
2019-03-02T14:15:21.682Z,7.07
2019-03-02T14:17:51.603Z,6.50
2019-03-02T14:20:24.796Z,6.20
2019-03-02T14:23:05.692Z,6.72
2019-03-02T14:25:34.171Z,5.80
2019-03-02T14:28:14.680Z,6.37
2019-03-02T14:31:02.443Z,5.40
2019-03-02T14:33:33.643Z,6.75
2019-03-02T14:36:20.130Z,5.67
2019-03-02T14:38:48.558Z,6.15
2019-03-02T14:41:17.021Z,6.20
2019-03-02T14:43:48.501Z,5.05
2019-03-02T14:46:35.231Z,4.80
2019-03-02T14:49:24.503Z,6.17
2019-03-02T14:51:53.181Z,4.80
2019-03-02T14:54:25.155Z,5.60
2019-03-02T14:56:53.542Z,4.17
2019-03-02T14:59:38.831Z,4.40
2019-03-02T15:02:23.941Z,5.15
2019-03-02T15:05:01.379Z,4.97
2019-03-02T15:07:39.074Z,5.20
2019-03-02T15:10:22.947Z,4.30
2019-03-02T15:12:58.080Z,5.17
2019-03-02T15:15:43.473Z,4.45
2019-03-02T15:18:29.399Z,6.03
2019-03-02T15:21:03.382Z,6.03
2019-03-02T15:23:39.014Z,5.72
2019-03-02T15:26:08.245Z,4.92
2019-03-02T15:28:39.524Z,5.28
2019-03-02T15:31:24.567Z,4.75
2019-03-02T15:34:10.351Z,5.12
2019-03-02T15:36:56.849Z,6.00
2019-03-02T15:39:25.687Z,13.20
2019-03-02T15:42:12.204Z,5.92
2019-03-02T15:44:52.841Z,5.20
2019-03-02T15:47:37.881Z,4.30
2019-03-02T15:50:13.380Z,5.30
2019-03-02T15:52:43.749Z,4.50
2019-03-02T15:55:22.841Z,9.13
2019-03-02T15:57:53.602Z,8.35
2019-03-02T16:00:21.705Z,6.62
2019-03-02T16:02:53.143Z,5.72
2019-03-02T16:05:21.722Z,4.00
2019-03-02T16:07:55.833Z,4.80
2019-03-02T16:10:24.392Z,4.00
2019-03-02T16:12:58.825Z,5.12
2019-03-02T16:15:33.177Z,5.45
2019-03-02T16:18:01.570Z,4.90
2019-03-02T16:20:38.976Z,4.45
2019-03-02T16:23:11.798Z,3.75
2019-03-02T16:25:42.899Z,3.50
2019-03-02T16:28:28.289Z,3.80
2019-03-02T16:31:04.162Z,3.30
2019-03-02T16:33:51.551Z,3.58
2019-03-02T16:36:20.053Z,4.08
2019-03-02T16:38:48.571Z,4.30
2019-03-02T16:41:19.913Z,3.37
2019-03-02T16:43:54.195Z,5.62
2019-03-02T16:46:22.556Z,7.97
2019-03-02T16:48:56.788Z,7.80
2019-03-02T16:51:43.661Z,6.40
2019-03-02T16:54:12.368Z,6.47
2019-03-02T16:56:41.064Z,6.87
2019-03-02T16:59:09.521Z,5.92
2019-03-02T17:01:38.449Z,6.67
2019-03-02T17:04:07.022Z,7.00
2019-03-02T17:06:42.629Z,5.22
2019-03-02T17:09:17.893Z,4.97
2019-03-02T17:11:52.400Z,4.75
2019-03-02T17:14:35.889Z,3.85
2019-03-02T17:17:11.875Z,3.77
2019-03-02T17:19:44.301Z,7.53
2019-03-02T17:22:18.679Z,6.90
2019-03-02T17:24:59.902Z,10.45
2019-03-02T17:27:28.782Z,15.95
2019-03-02T17:30:00.358Z,18.00
2019-03-02T17:32:45.608Z,22.85
2019-03-02T17:35:21.082Z,25.85
2019-03-02T17:38:02.182Z,23.15
2019-03-02T17:40:45.915Z,16.95
2019-03-02T17:43:20.412Z,11.00
2019-03-02T17:45:49.091Z,10.55
2019-03-02T17:48:32.636Z,10.68
2019-03-02T17:51:01.184Z,9.30
2019-03-02T17:53:44.601Z,8.85
2019-03-02T17:56:13.219Z,10.38
2019-03-02T17:58:44.293Z,10.38
2019-03-02T18:01:24.717Z,8.90
2019-03-02T18:03:55.952Z,7.55
2019-03-02T18:06:29.160Z,6.92
2019-03-02T18:08:57.520Z,5.50
2019-03-02T18:11:25.993Z,6.20
2019-03-02T18:14:00.446Z,5.30
2019-03-02T18:16:28.919Z,5.20
2019-03-02T18:18:55.614Z,5.15
2019-03-02T18:21:22.073Z,5.12
2019-03-02T18:23:49.026Z,4.87
2019-03-02T18:26:15.693Z,4.47
2019-03-02T18:28:42.298Z,4.55
2019-03-02T18:31:09.090Z,3.90
2019-03-02T18:33:40.633Z,3.30
2019-03-02T18:36:09.783Z,3.70
2019-03-02T18:38:35.493Z,3.75
2019-03-02T18:41:02.890Z,3.98
2019-03-02T18:43:29.657Z,3.50
2019-03-02T18:45:56.331Z,4.42
2019-03-02T18:48:33.929Z,4.15
2019-03-02T18:51:08.115Z,5.20
2019-03-02T18:53:36.021Z,5.62
2019-03-02T18:56:02.993Z,5.55
2019-03-02T18:58:29.593Z,6.53
2019-03-02T19:00:57.730Z,8.40
2019-03-02T19:03:24.825Z,8.50
2019-03-02T19:05:52.420Z,8.65
2019-03-02T19:08:18.875Z,9.88
2019-03-02T19:10:45.893Z,11.15
2019-03-02T19:13:12.369Z,10.25
2019-03-02T19:15:38.970Z,10.05
2019-03-02T19:18:05.537Z,10.98
2019-03-02T19:20:32.224Z,10.28
2019-03-02T19:22:58.676Z,8.90
2019-03-02T19:25:25.492Z,8.10
2019-03-02T19:27:52.094Z,7.78
2019-03-02T19:30:19.608Z,6.92
2019-03-02T19:32:46.271Z,4.87
2019-03-02T19:35:12.951Z,5.15
2019-03-02T19:37:40.425Z,5.15
2019-03-02T19:40:22.674Z,5.05
2019-03-02T19:42:49.438Z,4.17
2019-03-02T19:45:16.142Z,4.62
2019-03-02T19:47:42.710Z,4.45
2019-03-02T19:50:17.475Z,4.95
2019-03-02T19:52:44.141Z,4.60
2019-03-02T19:55:12.977Z,5.85
2019-03-02T19:57:39.565Z,4.78
2019-03-02T20:00:12.498Z,6.03
2019-03-02T20:02:39.076Z,7.60
2019-03-02T20:05:06.872Z,7.58
2019-03-02T20:07:33.456Z,9.28
2019-03-02T20:10:00.148Z,8.65
2019-03-02T20:12:26.888Z,8.00
2019-03-02T20:14:53.373Z,6.53
2019-03-02T20:17:19.970Z,7.30
2019-03-02T20:19:46.551Z,7.67
2019-03-02T20:22:13.125Z,6.35
2019-03-02T20:24:39.686Z,7.47
2019-03-02T20:27:06.402Z,7.28
2019-03-02T20:29:32.853Z,6.97
2019-03-02T20:31:59.373Z,7.15
2019-03-02T20:34:25.841Z,7.15
2019-03-02T20:36:52.511Z,5.97
2019-03-02T20:39:19.490Z,6.10
2019-03-02T20:41:46.155Z,5.25
2019-03-02T20:44:12.632Z,4.72
2019-03-02T20:46:39.372Z,4.80
2019-03-02T20:49:06.062Z,5.22
2019-03-02T20:51:32.788Z,4.90
2019-03-02T20:53:59.402Z,6.78
2019-03-02T20:56:25.860Z,7.55
2019-03-02T20:58:52.353Z,6.85
2019-03-02T21:01:19.010Z,9.25
2019-03-02T21:03:46.073Z,8.83
2019-03-02T21:06:12.757Z,8.78
2019-03-02T21:08:39.303Z,8.15
2019-03-02T21:11:06.088Z,6.90
2019-03-02T21:13:32.600Z,6.78
2019-03-02T21:15:59.295Z,5.83
2019-03-02T21:18:25.907Z,8.40
2019-03-02T21:20:52.555Z,7.05
2019-03-02T21:23:19.105Z,5.45
2019-03-02T21:25:45.690Z,6.90
2019-03-02T21:28:12.304Z,6.53
2019-03-02T21:30:38.995Z,6.85
2019-03-02T21:33:05.650Z,7.42
2019-03-02T21:35:32.135Z,6.35
2019-03-02T21:37:58.730Z,5.37
2019-03-02T21:40:26.813Z,5.97
2019-03-02T21:42:53.282Z,4.85
2019-03-02T21:45:21.962Z,6.83
2019-03-02T21:47:49.433Z,5.08
2019-03-02T21:50:27.917Z,6.10
2019-03-02T21:52:54.889Z,5.97
2019-03-02T21:55:21.956Z,6.17
2019-03-02T21:57:48.626Z,5.80
2019-03-02T22:00:17.512Z,5.33
2019-03-02T22:02:44.196Z,6.03
2019-03-02T22:05:10.788Z,7.08
2019-03-02T22:07:37.273Z,6.47
2019-03-02T22:10:10.023Z,4.70
2019-03-02T22:12:36.766Z,4.53
2019-03-02T22:15:08.139Z,5.45
2019-03-02T22:17:34.630Z,5.12
2019-03-02T22:20:01.587Z,5.55
2019-03-02T22:22:29.378Z,4.62
2019-03-02T22:24:56.142Z,4.67
2019-03-02T22:27:22.740Z,4.25
2019-03-02T22:29:49.202Z,4.30
2019-03-02T22:32:15.740Z,4.53
2019-03-02T22:34:42.588Z,4.30
2019-03-02T22:37:08.995Z,5.00
2019-03-02T22:39:35.585Z,4.58
2019-03-02T22:42:03.714Z,4.72
2019-03-02T22:44:30.624Z,3.85
2019-03-02T22:46:57.489Z,4.22
2019-03-02T22:49:24.055Z,4.12
2019-03-02T22:51:50.643Z,4.00
2019-03-02T22:54:17.114Z,3.85
2019-03-02T22:56:44.066Z,3.98
2019-03-02T22:59:10.594Z,3.77
2019-03-02T23:01:41.076Z,4.80
2019-03-02T23:04:07.810Z,6.67
2019-03-02T23:06:34.361Z,5.35
2019-03-02T23:09:00.876Z,7.60
2019-03-02T23:11:27.544Z,6.55
2019-03-02T23:13:54.137Z,5.00
2019-03-02T23:16:20.736Z,4.80
2019-03-02T23:18:47.432Z,4.80
2019-03-02T23:21:14.290Z,5.00
2019-03-02T23:23:40.757Z,4.58
2019-03-02T23:26:07.441Z,4.85
2019-03-02T23:28:33.927Z,4.00
2019-03-02T23:31:00.548Z,4.10
2019-03-02T23:33:27.023Z,4.47
2019-03-02T23:35:53.905Z,3.90
2019-03-02T23:38:20.472Z,3.98
2019-03-02T23:40:47.075Z,4.78
2019-03-02T23:43:13.640Z,4.20
2019-03-02T23:45:40.216Z,3.98
2019-03-02T23:48:06.891Z,5.08
2019-03-02T23:50:33.266Z,4.33
2019-03-02T23:52:59.849Z,4.53
2019-03-02T23:55:26.524Z,5.20
2019-03-02T23:57:53.005Z,4.45
